sensor_id;sensor_type;location;lat;lon;timestamp;pressure;altitude;pressure_sealevel;temperature;humidity
14204;BME280;7185;51.854;6.622;2023-04-15T00:00:20;100547.25;;;10.82;66.02
14204;BME280;7185;51.854;6.622;2023-04-15T00:02:52;100547.38;;;10.76;66.34
14204;BME280;7185;51.854;6.622;2023-04-15T00:05:24;100549.06;;;10.80;66.79
14204;BME280;7185;51.854;6.622;2023-04-15T00:07:56;100543.09;;;10.72;66.89
14204;BME280;7185;51.854;6.622;2023-04-15T00:10:29;100551.75;;;10.77;66.65
14204;BME280;7185;51.854;6.622;2023-04-15T00:13:01;100552.00;;;10.65;67.54
14204;BME280;7185;51.854;6.622;2023-04-15T00:15:33;100545.78;;;10.69;67.57
14204;BME280;7185;51.854;6.622;2023-04-15T00:18:05;100545.78;;;10.69;67.52
14204;BME280;7185;51.854;6.622;2023-04-15T00:20:37;100548.34;;;10.72;67.66
14204;BME280;7185;51.854;6.622;2023-04-15T00:23:08;100543.88;;;10.77;67.30
14204;BME280;7185;51.854;6.622;2023-04-15T00:25:41;100546.50;;;10.77;67.60
14204;BME280;7185;51.854;6.622;2023-04-15T00:28:13;100546.53;;;10.76;67.92
14204;BME280;7185;51.854;6.622;2023-04-15T00:30:44;100545.78;;;10.71;67.62
14204;BME280;7185;51.854;6.622;2023-04-15T00:33:16;100550.00;;;10.78;67.61
14204;BME280;7185;51.854;6.622;2023-04-15T00:35:48;100556.25;;;10.71;67.91
14204;BME280;7185;51.854;6.622;2023-04-15T00:38:20;100557.28;;;10.62;68.28
14204;BME280;7185;51.854;6.622;2023-04-15T00:40:53;100557.19;;;10.66;67.93
14204;BME280;7185;51.854;6.622;2023-04-15T00:43:25;100550.41;;;10.55;68.39
14204;BME280;7185;51.854;6.622;2023-04-15T00:45:57;100550.47;;;10.53;68.46
14204;BME280;7185;51.854;6.622;2023-04-15T00:48:30;100556.59;;;10.52;69.02
14204;BME280;7185;51.854;6.622;2023-04-15T00:51:02;100553.19;;;10.47;69.07
14204;BME280;7185;51.854;6.622;2023-04-15T00:53:33;100549.81;;;10.42;69.19
14204;BME280;7185;51.854;6.622;2023-04-15T00:56:07;100552.59;;;10.31;69.81
14204;BME280;7185;51.854;6.622;2023-04-15T00:58:38;100555.22;;;10.31;69.56
14204;BME280;7185;51.854;6.622;2023-04-15T01:01:10;100552.69;;;10.25;69.76
14204;BME280;7185;51.854;6.622;2023-04-15T01:03:41;100562.38;;;10.19;70.16
14204;BME280;7185;51.854;6.622;2023-04-15T01:06:14;100555.47;;;10.15;70.25
14204;BME280;7185;51.854;6.622;2023-04-15T01:08:46;100554.78;;;10.05;70.81
14204;BME280;7185;51.854;6.622;2023-04-15T01:11:19;100559.94;;;10.09;70.43
14204;BME280;7185;51.854;6.622;2023-04-15T01:13:51;100555.59;;;10.09;70.56
14204;BME280;7185;51.854;6.622;2023-04-15T01:16:22;100548.78;;;9.97;71.13
14204;BME280;7185;51.854;6.622;2023-04-15T01:18:54;100556.59;;;10.00;71.26
14204;BME280;7185;51.854;6.622;2023-04-15T01:21:26;100562.75;;;9.98;71.73
14204;BME280;7185;51.854;6.622;2023-04-15T01:23:59;100567.25;;;9.89;72.12
14204;BME280;7185;51.854;6.622;2023-04-15T01:26:33;100558.56;;;9.87;72.08
14204;BME280;7185;51.854;6.622;2023-04-15T01:29:05;100555.13;;;9.84;72.11
14204;BME280;7185;51.854;6.622;2023-04-15T01:31:37;100561.41;;;9.72;72.37
14204;BME280;7185;51.854;6.622;2023-04-15T01:34:09;100564.03;;;9.72;72.19
14204;BME280;7185;51.854;6.622;2023-04-15T01:36:41;100561.50;;;9.66;72.90
14204;BME280;7185;51.854;6.622;2023-04-15T01:39:13;100561.59;;;9.60;72.98
14204;BME280;7185;51.854;6.622;2023-04-15T01:41:46;100564.97;;;9.68;72.71
14204;BME280;7185;51.854;6.622;2023-04-15T01:44:18;100559.06;;;9.52;73.25
14204;BME280;7185;51.854;6.622;2023-04-15T01:46:49;100568.59;;;9.57;73.42
14204;BME280;7185;51.854;6.622;2023-04-15T01:49:22;100570.47;;;9.51;73.44
14204;BME280;7185;51.854;6.622;2023-04-15T01:51:54;100567.75;;;9.57;73.54
14204;BME280;7185;51.854;6.622;2023-04-15T01:54:25;100565.28;;;9.46;74.35
14204;BME280;7185;51.854;6.622;2023-04-15T01:56:59;100569.69;;;9.43;74.39
14204;BME280;7185;51.854;6.622;2023-04-15T01:59:31;100568.78;;;9.45;74.13
14204;BME280;7185;51.854;6.622;2023-04-15T02:02:02;100567.06;;;9.44;73.52
14204;BME280;7185;51.854;6.622;2023-04-15T02:04:34;100568.66;;;9.54;73.25
14204;BME280;7185;51.854;6.622;2023-04-15T02:07:06;100569.63;;;9.46;73.90
14204;BME280;7185;51.854;6.622;2023-04-15T02:09:37;100571.47;;;9.40;73.92
14204;BME280;7185;51.854;6.622;2023-04-15T02:12:10;100581.00;;;9.46;74.00
14204;BME280;7185;51.854;6.622;2023-04-15T02:14:42;100578.53;;;9.35;74.54
14204;BME280;7185;51.854;6.622;2023-04-15T02:17:14;100576.94;;;9.20;74.63
14204;BME280;7185;51.854;6.622;2023-04-15T02:19:46;100577.78;;;9.25;74.94
14204;BME280;7185;51.854;6.622;2023-04-15T02:22:18;100581.28;;;9.24;74.79
14204;BME280;7185;51.854;6.622;2023-04-15T02:24:50;100576.16;;;9.15;74.99
14204;BME280;7185;51.854;6.622;2023-04-15T02:27:23;100580.53;;;9.13;75.22
14204;BME280;7185;51.854;6.622;2023-04-15T02:29:55;100584.03;;;9.14;75.20
14204;BME280;7185;51.854;6.622;2023-04-15T02:32:27;100587.59;;;9.06;75.48
14204;BME280;7185;51.854;6.622;2023-04-15T02:35:01;100589.19;;;9.20;75.22
14204;BME280;7185;51.854;6.622;2023-04-15T02:37:34;100586.72;;;9.06;76.20
14204;BME280;7185;51.854;6.622;2023-04-15T02:40:10;100591.09;;;9.05;76.39
14204;BME280;7185;51.854;6.622;2023-04-15T02:42:43;100593.84;;;8.95;76.50
14204;BME280;7185;51.854;6.622;2023-04-15T02:45:15;100599.00;;;9.01;76.51
14204;BME280;7185;51.854;6.622;2023-04-15T02:47:49;100606.81;;;9.04;76.68
14204;BME280;7185;51.854;6.622;2023-04-15T02:50:21;100607.59;;;9.12;76.40
14204;BME280;7185;51.854;6.622;2023-04-15T02:52:53;100607.59;;;9.12;75.87
14204;BME280;7185;51.854;6.622;2023-04-15T02:55:24;100608.47;;;9.11;75.92
14204;BME280;7185;51.854;6.622;2023-04-15T02:57:57;100613.72;;;9.08;76.04
14204;BME280;7185;51.854;6.622;2023-04-15T03:00:30;100611.13;;;9.08;76.29
14204;BME280;7185;51.854;6.622;2023-04-15T03:03:03;100612.88;;;9.06;76.62
14204;BME280;7185;51.854;6.622;2023-04-15T03:05:34;100603.41;;;8.97;76.95
14204;BME280;7185;51.854;6.622;2023-04-15T03:08:08;100613.09;;;8.87;77.56
14204;BME280;7185;51.854;6.622;2023-04-15T03:10:39;100605.16;;;8.95;77.42
14204;BME280;7185;51.854;6.622;2023-04-15T03:13:12;100614.66;;;9.04;77.14
14204;BME280;7185;51.854;6.622;2023-04-15T03:15:45;100612.94;;;9.00;77.11
14204;BME280;7185;51.854;6.622;2023-04-15T03:18:17;100619.13;;;8.94;77.87
14204;BME280;7185;51.854;6.622;2023-04-15T03:20:48;100624.31;;;8.97;77.40
14204;BME280;7185;51.854;6.622;2023-04-15T03:23:20;100627.88;;;8.93;77.71
14204;BME280;7185;51.854;6.622;2023-04-15T03:25:51;100617.47;;;8.85;78.18
14204;BME280;7185;51.854;6.622;2023-04-15T03:28:26;100620.06;;;8.88;77.86
14204;BME280;7185;51.854;6.622;2023-04-15T03:30:59;100623.63;;;8.81;78.64
14204;BME280;7185;51.854;6.622;2023-04-15T03:33:30;100627.94;;;8.87;78.35
14204;BME280;7185;51.854;6.622;2023-04-15T03:36:02;100619.19;;;8.89;78.00
14204;BME280;7185;51.854;6.622;2023-04-15T03:38:34;100617.63;;;8.71;78.86
14204;BME280;7185;51.854;6.622;2023-04-15T03:41:05;100632.56;;;8.58;79.39
14204;BME280;7185;51.854;6.622;2023-04-15T03:43:38;100632.63;;;8.52;79.94
14204;BME280;7185;51.854;6.622;2023-04-15T03:46:10;100642.09;;;8.64;79.69
14204;BME280;7185;51.854;6.622;2023-04-15T03:48:42;100641.22;;;8.64;79.73
14204;BME280;7185;51.854;6.622;2023-04-15T03:51:13;100640.25;;;8.74;78.79
14204;BME280;7185;51.854;6.622;2023-04-15T03:53:45;100646.28;;;8.79;79.20
14204;BME280;7185;51.854;6.622;2023-04-15T03:56:16;100637.84;;;8.55;79.88
14204;BME280;7185;51.854;6.622;2023-04-15T03:58:49;100638.56;;;8.70;79.93
14204;BME280;7185;51.854;6.622;2023-04-15T04:01:21;100646.44;;;8.64;79.40
14204;BME280;7185;51.854;6.622;2023-04-15T04:03:53;100652.56;;;8.64;79.52
14204;BME280;7185;51.854;6.622;2023-04-15T04:06:25;100656.84;;;8.71;79.55
14204;BME280;7185;51.854;6.622;2023-04-15T04:08:56;100665.53;;;8.72;79.33
14204;BME280;7185;51.854;6.622;2023-04-15T04:11:28;100658.56;;;8.74;79.40
14204;BME280;7185;51.854;6.622;2023-04-15T04:14:01;100673.38;;;8.75;79.37
14204;BME280;7185;51.854;6.622;2023-04-15T04:16:32;100667.31;;;8.70;80.24
14204;BME280;7185;51.854;6.622;2023-04-15T04:19:04;100673.41;;;8.70;81.19
14204;BME280;7185;51.854;6.622;2023-04-15T04:21:36;100676.03;;;8.69;81.08
14204;BME280;7185;51.854;6.622;2023-04-15T04:24:08;100669.97;;;8.62;80.88
14204;BME280;7185;51.854;6.622;2023-04-15T04:26:40;100674.34;;;8.61;81.51
14204;BME280;7185;51.854;6.622;2023-04-15T04:29:13;100677.09;;;8.44;82.01
14204;BME280;7185;51.854;6.622;2023-04-15T04:31:44;100683.16;;;8.51;82.74
14204;BME280;7185;51.854;6.622;2023-04-15T04:34:17;100686.66;;;8.44;82.90
14204;BME280;7185;51.854;6.622;2023-04-15T04:36:49;100690.28;;;8.27;83.54
14204;BME280;7185;51.854;6.622;2023-04-15T04:39:21;100694.50;;;8.42;83.26
14204;BME280;7185;51.854;6.622;2023-04-15T04:41:52;100695.53;;;8.21;84.00
14204;BME280;7185;51.854;6.622;2023-04-15T04:44:25;100693.78;;;8.23;84.35
14204;BME280;7185;51.854;6.622;2023-04-15T04:46:56;100692.91;;;8.21;84.95
14204;BME280;7185;51.854;6.622;2023-04-15T04:49:28;100695.47;;;8.30;84.00
14204;BME280;7185;51.854;6.622;2023-04-15T04:52:00;100694.66;;;8.22;84.33
14204;BME280;7185;51.854;6.622;2023-04-15T04:54:31;100695.50;;;8.24;84.58
14204;BME280;7185;51.854;6.622;2023-04-15T04:57:03;100698.09;;;8.29;84.64
14204;BME280;7185;51.854;6.622;2023-04-15T04:59:38;100704.22;;;8.26;84.65
14204;BME280;7185;51.854;6.622;2023-04-15T05:02:10;100707.72;;;8.22;84.11
14204;BME280;7185;51.854;6.622;2023-04-15T05:04:41;100706.72;;;8.39;84.36
14204;BME280;7185;51.854;6.622;2023-04-15T05:07:13;100712.81;;;8.41;84.03
14204;BME280;7185;51.854;6.622;2023-04-15T05:09:45;100707.56;;;8.44;83.83
14204;BME280;7185;51.854;6.622;2023-04-15T05:12:16;100712.81;;;8.47;83.45
14204;BME280;7185;51.854;6.622;2023-04-15T05:14:49;100714.53;;;8.48;83.73
14204;BME280;7185;51.854;6.622;2023-04-15T05:17:21;100720.56;;;8.55;83.67
14204;BME280;7185;51.854;6.622;2023-04-15T05:19:52;100725.00;;;8.48;83.93
14204;BME280;7185;51.854;6.622;2023-04-15T05:22:24;100718.00;;;8.50;84.44
14204;BME280;7185;51.854;6.622;2023-04-15T05:24:55;100727.59;;;8.53;84.16
14204;BME280;7185;51.854;6.622;2023-04-15T05:27:27;100724.06;;;8.55;83.94
14204;BME280;7185;51.854;6.622;2023-04-15T05:30:00;100727.53;;;8.59;84.48
14204;BME280;7185;51.854;6.622;2023-04-15T05:32:31;100730.06;;;8.64;84.21
14204;BME280;7185;51.854;6.622;2023-04-15T05:35:03;100733.44;;;8.78;83.33
14204;BME280;7185;51.854;6.622;2023-04-15T05:37:35;100742.22;;;8.74;83.74
14204;BME280;7185;51.854;6.622;2023-04-15T05:40:07;100744.75;;;8.82;83.73
14204;BME280;7185;51.854;6.622;2023-04-15T05:42:39;100748.16;;;8.90;83.81
14204;BME280;7185;51.854;6.622;2023-04-15T05:45:12;100747.25;;;8.96;83.73
14204;BME280;7185;51.854;6.622;2023-04-15T05:47:44;100741.97;;;9.02;83.48
14204;BME280;7185;51.854;6.622;2023-04-15T05:50:16;100763.72;;;9.02;82.97
14204;BME280;7185;51.854;6.622;2023-04-15T05:52:47;100761.09;;;9.07;83.13
14204;BME280;7185;51.854;6.622;2023-04-15T05:55:19;100757.56;;;9.11;82.89
14204;BME280;7185;51.854;6.622;2023-04-15T05:57:51;100766.13;;;9.27;82.79
14204;BME280;7185;51.854;6.622;2023-04-15T06:00:24;100766.88;;;9.40;82.34
14204;BME280;7185;51.854;6.622;2023-04-15T06:02:55;100772.91;;;9.45;82.50
14204;BME280;7185;51.854;6.622;2023-04-15T06:05:28;100782.47;;;9.51;81.62
14204;BME280;7185;51.854;6.622;2023-04-15T06:07:59;100785.81;;;9.62;81.29
14204;BME280;7185;51.854;6.622;2023-04-15T06:10:31;100783.09;;;9.70;81.31
14204;BME280;7185;51.854;6.622;2023-04-15T06:13:06;100789.25;;;9.67;81.34
14204;BME280;7185;51.854;6.622;2023-04-15T06:15:39;100803.03;;;9.85;80.77
14204;BME280;7185;51.854;6.622;2023-04-15T06:18:10;100798.56;;;9.92;80.38
14204;BME280;7185;51.854;6.622;2023-04-15T06:20:42;100796.63;;;10.06;80.03
14204;BME280;7185;51.854;6.622;2023-04-15T06:23:13;100798.44;;;10.04;79.64
14204;BME280;7185;51.854;6.622;2023-04-15T06:25:45;100809.75;;;10.04;78.95
14204;BME280;7185;51.854;6.622;2023-04-15T06:28:17;100802.59;;;10.16;80.02
14204;BME280;7185;51.854;6.622;2023-04-15T06:30:50;100811.31;;;10.18;79.74
14204;BME280;7185;51.854;6.622;2023-04-15T06:33:21;100811.16;;;10.32;79.64
14204;BME280;7185;51.854;6.622;2023-04-15T06:35:53;100819.78;;;10.40;79.17
14204;BME280;7185;51.854;6.622;2023-04-15T06:38:24;100817.84;;;10.55;77.53
14204;BME280;7185;51.854;6.622;2023-04-15T06:40:56;100825.50;;;10.68;78.65
14204;BME280;7185;51.854;6.622;2023-04-15T06:43:27;100825.25;;;10.86;77.50
14204;BME280;7185;51.854;6.622;2023-04-15T06:46:00;100832.22;;;10.87;77.42
14204;BME280;7185;51.854;6.622;2023-04-15T06:48:32;100831.91;;;11.05;76.76
14204;BME280;7185;51.854;6.622;2023-04-15T06:51:04;100831.13;;;11.00;76.11
14204;BME280;7185;51.854;6.622;2023-04-15T06:53:35;100834.22;;;11.25;75.81
14204;BME280;7185;51.854;6.622;2023-04-15T06:56:10;100833.34;;;11.25;75.30
14204;BME280;7185;51.854;6.622;2023-04-15T06:58:41;100833.28;;;11.28;75.35
14204;BME280;7185;51.854;6.622;2023-04-15T07:01:14;100837.19;;;11.55;74.11
14204;BME280;7185;51.854;6.622;2023-04-15T07:03:46;100830.72;;;11.73;72.42
14204;BME280;7185;51.854;6.622;2023-04-15T07:06:18;100833.19;;;11.81;72.89
14204;BME280;7185;51.854;6.622;2023-04-15T07:08:50;100836.47;;;11.92;71.90
14204;BME280;7185;51.854;6.622;2023-04-15T07:11:22;100838.59;;;12.19;71.40
14204;BME280;7185;51.854;6.622;2023-04-15T07:13:53;100838.97;;;12.41;70.70
14204;BME280;7185;51.854;6.622;2023-04-15T07:16:26;100852.31;;;12.33;70.26
14204;BME280;7185;51.854;6.622;2023-04-15T07:18:58;100845.78;;;12.51;69.70
14204;BME280;7185;51.854;6.622;2023-04-15T07:21:30;100851.84;;;12.55;68.87
14204;BME280;7185;51.854;6.622;2023-04-15T07:24:01;100851.66;;;12.63;68.65
14204;BME280;7185;51.854;6.622;2023-04-15T07:26:33;100859.81;;;12.50;68.26
14204;BME280;7185;51.854;6.622;2023-04-15T07:29:04;100862.81;;;12.72;67.45
14204;BME280;7185;51.854;6.622;2023-04-15T07:31:39;100859.25;;;12.77;67.25
14204;BME280;7185;51.854;6.622;2023-04-15T07:34:10;100867.84;;;12.83;67.12
14204;BME280;7185;51.854;6.622;2023-04-15T07:36:42;100866.84;;;12.89;66.64
14204;BME280;7185;51.854;6.622;2023-04-15T07:39:13;100867.28;;;13.08;66.48
14204;BME280;7185;51.854;6.622;2023-04-15T07:41:45;100871.66;;;13.07;66.33
14204;BME280;7185;51.854;6.622;2023-04-15T07:44:18;100873.31;;;13.12;64.94
14204;BME280;7185;51.854;6.622;2023-04-15T07:46:51;100878.50;;;13.16;63.77
14204;BME280;7185;51.854;6.622;2023-04-15T07:49:23;100875.38;;;13.35;63.22
14204;BME280;7185;51.854;6.622;2023-04-15T07:51:54;100881.09;;;13.54;63.58
14204;BME280;7185;51.854;6.622;2023-04-15T07:54:27;100880.53;;;13.03;63.55
14204;BME280;7185;51.854;6.622;2023-04-15T07:56:58;100881.34;;;13.07;63.44
14204;BME280;7185;51.854;6.622;2023-04-15T07:59:30;100884.00;;;13.43;62.66
14204;BME280;7185;51.854;6.622;2023-04-15T08:02:04;100886.41;;;13.51;62.64
14204;BME280;7185;51.854;6.622;2023-04-15T08:04:35;100884.44;;;13.59;62.35
14204;BME280;7185;51.854;6.622;2023-04-15T08:07:07;100893.91;;;13.66;nan
14204;BME280;7185;51.854;6.622;2023-04-15T08:09:39;100889.97;;;13.83;61.48
14204;BME280;7185;51.854;6.622;2023-04-15T08:12:11;100898.75;;;13.83;60.74
14204;BME280;7185;51.854;6.622;2023-04-15T08:14:44;100891.16;;;14.04;60.33
14204;BME280;7185;51.854;6.622;2023-04-15T08:17:17;100903.34;;;14.08;61.20
14204;BME280;7185;51.854;6.622;2023-04-15T08:19:48;100901.34;;;14.48;59.49
14204;BME280;7185;51.854;6.622;2023-04-15T08:22:20;100896.75;;;14.23;59.05
14204;BME280;7185;51.854;6.622;2023-04-15T08:24:52;100901.22;;;14.21;60.81
14204;BME280;7185;51.854;6.622;2023-04-15T08:27:23;100900.81;;;14.35;59.19
14204;BME280;7185;51.854;6.622;2023-04-15T08:29:55;100902.81;;;14.27;58.42
14204;BME280;7185;51.854;6.622;2023-04-15T08:32:28;100905.31;;;14.31;60.56
14204;BME280;7185;51.854;6.622;2023-04-15T08:35:00;100905.59;;;14.52;59.37
14204;BME280;7185;51.854;6.622;2023-04-15T08:37:31;100906.75;;;14.73;58.66
14204;BME280;7185;51.854;6.622;2023-04-15T08:40:04;100903.78;;;14.24;59.68
14204;BME280;7185;51.854;6.622;2023-04-15T08:42:40;100901.78;;;14.32;60.10
14204;BME280;7185;51.854;6.622;2023-04-15T08:45:12;100911.75;;;14.21;59.86
14204;BME280;7185;51.854;6.622;2023-04-15T08:47:47;100915.63;;;14.41;59.27
14204;BME280;7185;51.854;6.622;2023-04-15T08:50:21;100922.34;;;14.51;58.95
14204;BME280;7185;51.854;6.622;2023-04-15T08:52:55;100919.19;;;14.98;58.20
14204;BME280;7185;51.854;6.622;2023-04-15T08:55:32;100926.38;;;15.48;56.86
14204;BME280;7185;51.854;6.622;2023-04-15T08:58:05;100932.06;;;15.36;57.19
14204;BME280;7185;51.854;6.622;2023-04-15T09:00:36;100931.56;;;15.51;56.85
14204;BME280;7185;51.854;6.622;2023-04-15T09:03:10;100930.09;;;15.69;56.75
14204;BME280;7185;51.854;6.622;2023-04-15T09:05:42;100941.50;;;15.97;56.52
14204;BME280;7185;51.854;6.622;2023-04-15T09:08:14;100939.81;;;15.94;54.61
14204;BME280;7185;51.854;6.622;2023-04-15T09:10:46;100952.91;;;15.45;55.77
14204;BME280;7185;51.854;6.622;2023-04-15T09:13:17;100945.19;;;15.66;55.27
14204;BME280;7185;51.854;6.622;2023-04-15T09:15:49;100950.69;;;15.86;55.33
14204;BME280;7185;51.854;6.622;2023-04-15T09:18:29;100952.50;;;16.09;54.62
14204;BME280;7185;51.854;6.622;2023-04-15T09:21:05;100956.50;;;15.96;54.86
14204;BME280;7185;51.854;6.622;2023-04-15T09:23:39;100950.09;;;16.03;53.97
14204;BME280;7185;51.854;6.622;2023-04-15T09:26:11;100958.69;;;15.83;55.04
14204;BME280;7185;51.854;6.622;2023-04-15T09:28:43;100959.59;;;16.09;54.58
14204;BME280;7185;51.854;6.622;2023-04-15T09:31:14;100962.47;;;16.03;53.69
14204;BME280;7185;51.854;6.622;2023-04-15T09:33:54;100961.94;;;16.42;53.29
14204;BME280;7185;51.854;6.622;2023-04-15T09:36:27;100952.56;;;17.03;52.77
14204;BME280;7185;51.854;6.622;2023-04-15T09:38:59;100975.00;;;17.16;52.42
14204;BME280;7185;51.854;6.622;2023-04-15T09:41:31;100964.28;;;17.19;50.89
14204;BME280;7185;51.854;6.622;2023-04-15T09:44:03;100967.19;;;17.13;51.33
14204;BME280;7185;51.854;6.622;2023-04-15T09:46:41;100971.50;;;17.38;49.64
14204;BME280;7185;51.854;6.622;2023-04-15T09:49:14;100970.97;;;17.30;48.66
14204;BME280;7185;51.854;6.622;2023-04-15T09:51:47;100977.22;;;17.05;49.34
14204;BME280;7185;51.854;6.622;2023-04-15T09:54:18;100991.59;;;16.27;50.99
14204;BME280;7185;51.854;6.622;2023-04-15T09:56:51;100998.38;;;16.08;52.28
14204;BME280;7185;51.854;6.622;2023-04-15T09:59:22;100985.75;;;15.65;53.65
14204;BME280;7185;51.854;6.622;2023-04-15T10:01:54;100994.38;;;15.43;55.18
14204;BME280;7185;51.854;6.622;2023-04-15T10:04:27;100996.72;;;15.24;56.44
14204;BME280;7185;51.854;6.622;2023-04-15T10:06:59;101004.03;;;15.16;57.04
14204;BME280;7185;51.854;6.622;2023-04-15T10:09:34;101003.56;;;15.03;57.55
14204;BME280;7185;51.854;6.622;2023-04-15T10:12:07;101009.69;;;15.03;58.06
14204;BME280;7185;51.854;6.622;2023-04-15T10:14:39;101007.88;;;15.34;57.22
14204;BME280;7185;51.854;6.622;2023-04-15T10:17:17;101010.97;;;15.75;55.69
14204;BME280;7185;51.854;6.622;2023-04-15T10:19:52;101012.25;;;15.90;54.82
14204;BME280;7185;51.854;6.622;2023-04-15T10:22:25;101012.59;;;15.52;54.66
14204;BME280;7185;51.854;6.622;2023-04-15T10:24:58;101021.94;;;15.06;55.67
14204;BME280;7185;51.854;6.622;2023-04-15T10:27:30;101020.56;;;15.22;56.03
14204;BME280;7185;51.854;6.622;2023-04-15T10:30:05;101029.81;;;15.07;56.70
14204;BME280;7185;51.854;6.622;2023-04-15T10:32:38;101034.38;;;14.71;57.13
14204;BME280;7185;51.854;6.622;2023-04-15T10:35:12;101037.78;;;14.76;57.84
14204;BME280;7185;51.854;6.622;2023-04-15T10:37:44;101028.84;;;14.80;58.02
14204;BME280;7185;51.854;6.622;2023-04-15T10:40:29;101025.88;;;14.59;58.60
14204;BME280;7185;51.854;6.622;2023-04-15T10:43:01;101028.47;;;14.62;58.75
14204;BME280;7185;51.854;6.622;2023-04-15T10:45:34;101030.44;;;14.54;59.28
14204;BME280;7185;51.854;6.622;2023-04-15T10:48:07;101030.78;;;14.75;58.77
14204;BME280;7185;51.854;6.622;2023-04-15T10:50:39;101031.41;;;14.50;59.15
14204;BME280;7185;51.854;6.622;2023-04-15T10:53:11;101034.31;;;14.74;58.85
14204;BME280;7185;51.854;6.622;2023-04-15T10:55:43;101030.59;;;14.81;59.12
14204;BME280;7185;51.854;6.622;2023-04-15T10:58:14;101033.28;;;14.79;59.05
14204;BME280;7185;51.854;6.622;2023-04-15T11:00:49;101037.03;;;14.71;58.68
14204;BME280;7185;51.854;6.622;2023-04-15T11:03:36;101034.31;;;14.74;58.76
14204;BME280;7185;51.854;6.622;2023-04-15T11:06:09;101039.66;;;14.71;58.05
14204;BME280;7185;51.854;6.622;2023-04-15T11:08:55;101035.22;;;14.73;58.32
14204;BME280;7185;51.854;6.622;2023-04-15T11:14:45;101049.97;;;14.80;58.62
14204;BME280;7185;51.854;6.622;2023-04-15T11:17:26;101041.47;;;15.00;58.55
14204;BME280;7185;51.854;6.622;2023-04-15T11:19:58;101046.84;;;14.97;57.69
14204;BME280;7185;51.854;6.622;2023-04-15T11:22:31;101040.97;;;14.87;57.28
14204;BME280;7185;51.854;6.622;2023-04-15T11:25:03;101053.38;;;14.84;58.08
14204;BME280;7185;51.854;6.622;2023-04-15T11:27:35;101058.06;;;14.74;58.88
14204;BME280;7185;51.854;6.622;2023-04-15T11:30:17;101055.19;;;14.83;58.72
14204;BME280;7185;51.854;6.622;2023-04-15T11:32:50;101053.56;;;14.44;59.78
14204;BME280;7185;51.854;6.622;2023-04-15T11:35:22;101062.25;;;14.15;60.27
14204;BME280;7185;51.854;6.622;2023-04-15T11:37:55;101064.53;;;13.94;60.59
14204;BME280;7185;51.854;6.622;2023-04-15T11:40:28;101075.59;;;13.73;61.99
14204;BME280;7185;51.854;6.622;2023-04-15T11:43:04;101066.72;;;13.77;62.12
14204;BME280;7185;51.854;6.622;2023-04-15T11:45:46;101071.38;;;14.01;61.66
14204;BME280;7185;51.854;6.622;2023-04-15T11:48:19;101060.50;;;13.79;62.37
14204;BME280;7185;51.854;6.622;2023-04-15T11:50:54;101072.72;;;14.18;61.55
14204;BME280;7185;51.854;6.622;2023-04-15T11:53:37;101075.59;;;14.42;60.92
14204;BME280;7185;51.854;6.622;2023-04-15T11:56:16;101084.78;;;14.61;59.71
14204;BME280;7185;51.854;6.622;2023-04-15T11:58:51;101072.66;;;14.87;58.64
14204;BME280;7185;51.854;6.622;2023-04-15T12:01:30;101081.69;;;15.10;57.66
14204;BME280;7185;51.854;6.622;2023-04-15T12:04:10;101082.41;;;15.15;57.74
14204;BME280;7185;51.854;6.622;2023-04-15T12:06:42;101082.78;;;15.03;57.03
14204;BME280;7185;51.854;6.622;2023-04-15T12:09:15;101088.56;;;14.84;57.89
14204;BME280;7185;51.854;6.622;2023-04-15T12:11:48;101081.28;;;14.92;58.31
14204;BME280;7185;51.854;6.622;2023-04-15T12:14:25;101084.69;;;14.97;58.51
14204;BME280;7185;51.854;6.622;2023-04-15T12:17:00;101094.00;;;14.78;57.56
14204;BME280;7185;51.854;6.622;2023-04-15T12:19:34;101089.22;;;14.59;59.90
14204;BME280;7185;51.854;6.622;2023-04-15T12:22:08;101102.69;;;14.83;58.58
14204;BME280;7185;51.854;6.622;2023-04-15T12:24:43;101099.72;;;15.25;57.46
14204;BME280;7185;51.854;6.622;2023-04-15T12:27:17;101114.09;;;15.15;57.85
14204;BME280;7185;51.854;6.622;2023-04-15T12:29:48;101108.94;;;14.79;58.69
14204;BME280;7185;51.854;6.622;2023-04-15T12:32:20;101109.66;;;14.51;60.47
14204;BME280;7185;51.854;6.622;2023-04-15T12:34:52;101119.53;;;14.44;60.91
14204;BME280;7185;51.854;6.622;2023-04-15T12:37:24;101119.31;;;14.52;61.16
14204;BME280;7185;51.854;6.622;2023-04-15T12:39:57;101120.97;;;14.56;60.57
14204;BME280;7185;51.854;6.622;2023-04-15T12:42:29;101127.84;;;14.96;59.12
14204;BME280;7185;51.854;6.622;2023-04-15T12:45:00;101122.44;;;15.31;57.96
14204;BME280;7185;51.854;6.622;2023-04-15T12:47:32;101133.53;;;15.12;57.69
14204;BME280;7185;51.854;6.622;2023-04-15T12:50:05;101129.41;;;15.02;57.81
14204;BME280;7185;51.854;6.622;2023-04-15T12:52:37;101136.06;;;14.84;57.93
14204;BME280;7185;51.854;6.622;2023-04-15T12:55:10;101141.09;;;14.60;58.09
14204;BME280;7185;51.854;6.622;2023-04-15T12:57:42;101147.28;;;14.59;59.18
14204;BME280;7185;51.854;6.622;2023-04-15T13:00:14;101135.47;;;14.40;59.25
14204;BME280;7185;51.854;6.622;2023-04-15T13:02:46;101135.47;;;14.40;59.61
14204;BME280;7185;51.854;6.622;2023-04-15T13:05:17;101143.63;;;14.63;59.18
14204;BME280;7185;51.854;6.622;2023-04-15T13:07:49;101147.06;;;14.69;58.61
14204;BME280;7185;51.854;6.622;2023-04-15T13:10:22;101153.97;;;14.38;60.24
14204;BME280;7185;51.854;6.622;2023-04-15T13:12:53;101151.25;;;14.41;60.09
14204;BME280;7185;51.854;6.622;2023-04-15T13:15:26;101155.91;;;14.31;60.96
14204;BME280;7185;51.854;6.622;2023-04-15T13:17:58;101160.06;;;14.04;62.08
14204;BME280;7185;51.854;6.622;2023-04-15T13:20:29;101153.59;;;13.81;61.70
14204;BME280;7185;51.854;6.622;2023-04-15T13:23:01;101169.47;;;14.16;62.09
14204;BME280;7185;51.854;6.622;2023-04-15T13:25:34;101175.09;;;14.00;61.75
14204;BME280;7185;51.854;6.622;2023-04-15T13:28:05;101174.72;;;13.78;61.91
14204;BME280;7185;51.854;6.622;2023-04-15T13:30:37;101179.00;;;13.84;61.73
14204;BME280;7185;51.854;6.622;2023-04-15T13:33:09;101186.72;;;13.51;62.96
14204;BME280;7185;51.854;6.622;2023-04-15T13:35:41;101190.75;;;14.07;61.93